Time;durP1;ratioP1;P1;durP2;ratioP2;P2;SDS_P1;SDS_P2;PMS_P1;PMS_P2;Temp;Humidity;BMP_temperature;BMP_pressure;BME280_temperature;BME280_humidity;BME280_pressure;Samples;Min_cycle;Max_cycle;Signal;HPM_P1;HPM_P2
2023/05/12 00:01:06;;;;;;;60.33;56.63;;;;;;;11.34;90.03;98105.13;5051415;28;20064;-73
2023/05/12 00:03:31;;;;;;;62.75;59.45;;;;;;;11.46;89.68;98098.53;5052240;28;20027;-73
2023/05/12 00:05:59;;;;;;;62.78;59.20;;;;;;;11.33;90.22;98100.78;5051240;28;20115;-73
2023/05/12 00:08:24;;;;;;;62.03;58.63;;;;;;;11.45;89.87;98101.50;5051386;28;20303;-73
2023/05/12 00:10:50;;;;;;;63.40;59.90;;;;;;;11.49;89.94;98105.31;5035666;28;20099;-73
2023/05/12 00:13:15;;;;;;;62.05;58.85;;;;;;;11.51;89.36;98100.47;5020717;28;20503;-74
2023/05/12 00:15:41;;;;;;;62.47;59.33;;;;;;;11.52;89.23;98102.09;5030952;28;20376;-74
2023/05/12 00:18:06;;;;;;;63.50;60.15;;;;;;;11.46;89.55;98097.75;5040013;28;20429;-74
2023/05/12 00:20:32;;;;;;;63.22;59.55;;;;;;;11.13;90.83;98092.47;5032302;28;20091;-74
2023/05/12 00:22:57;;;;;;;63.55;59.95;;;;;;;11.10;91.08;98089.22;5020592;28;20131;-74
2023/05/12 00:25:22;;;;;;;69.18;65.03;;;;;;;10.88;91.94;98091.06;5047067;28;20086;-72
2023/05/12 00:27:48;;;;;;;66.20;62.55;;;;;;;11.26;90.91;98092.09;5050830;28;20052;-73
2023/05/12 00:30:13;;;;;;;64.20;60.10;;;;;;;10.86;91.69;98085.09;5018255;28;20037;-72
2023/05/12 00:32:38;;;;;;;62.00;58.65;;;;;;;11.23;90.25;98084.50;5020531;28;20021;-73
2023/05/12 00:35:04;;;;;;;65.72;62.00;;;;;;;10.96;91.56;98085.25;5046793;28;20163;-74
2023/05/12 00:37:29;;;;;;;64.38;60.28;;;;;;;10.97;91.28;98070.69;5024887;28;20103;-74
2023/05/12 00:39:55;;;;;;;64.93;61.22;;;;;;;11.00;91.21;98072.91;5034756;28;20034;-75
2023/05/12 00:42:20;;;;;;;65.43;61.75;;;;;;;11.24;91.09;98078.03;5031830;28;20478;-74
2023/05/12 00:44:46;;;;;;;64.85;61.15;;;;;;;11.25;91.04;98077.78;5018110;28;20479;-75
2023/05/12 00:47:13;;;;;;;69.20;64.72;;;;;;;11.05;91.15;98078.38;5031875;28;20053;-74
2023/05/12 00:49:41;;;;;;;63.47;59.88;;;;;;;11.07;91.07;98081.63;5026603;28;20033;-75
2023/05/12 00:52:06;;;;;;;63.08;59.67;;;;;;;11.38;90.27;98090.06;5020595;28;20479;-75
2023/05/12 00:54:33;;;;;;;63.53;60.03;;;;;;;11.22;90.46;98086.38;5034342;28;20080;-75
2023/05/12 00:56:58;;;;;;;59.67;56.47;;;;;;;11.25;90.62;98095.88;5020134;28;20025;-75
2023/05/12 00:59:25;;;;;;;61.22;57.70;;;;;;;11.26;90.44;98092.91;5034438;28;20025;-75
2023/05/12 01:01:51;;;;;;;62.13;58.55;;;;;;;11.18;90.29;98100.63;5030625;28;20104;-75
2023/05/12 01:04:16;;;;;;;62.10;58.53;;;;;;;10.90;91.29;98094.31;5026456;28;20434;-75
2023/05/12 01:06:53;;;;;;;58.47;55.33;;;;;;;11.03;90.13;98099.38;5019974;28;20021;-73
2023/05/12 01:09:19;;;;;;;61.13;57.63;;;;;;;11.26;89.59;98097.47;5020430;28;20091;-73
2023/05/12 01:11:45;;;;;;;62.45;59.03;;;;;;;11.31;90.17;98094.84;5050232;28;20025;-73
2023/05/12 01:14:11;;;;;;;59.53;56.35;;;;;;;11.39;89.36;98097.13;5050140;28;20075;-73
2023/05/12 01:16:42;;;;;;;59.70;56.55;;;;;;;11.43;88.53;98092.84;5043759;28;20104;-73
2023/05/12 01:19:14;;;;;;;59.75;56.55;;;;;;;11.40;88.62;98093.34;5030247;28;20128;-75
2023/05/12 01:21:39;;;;;;;61.63;58.42;;;;;;;11.18;89.06;98092.53;5022536;28;20120;-74
2023/05/12 01:24:08;;;;;;;61.92;58.63;;;;;;;11.34;89.11;98094.34;5014408;28;20462;-74
2023/05/12 01:26:34;;;;;;;61.45;58.08;;;;;;;11.11;89.93;98081.91;5026252;28;20021;-74
2023/05/12 01:29:01;;;;;;;60.28;56.88;;;;;;;10.98;90.21;98091.22;5026197;28;20547;-75
2023/05/12 01:31:27;;;;;;;58.55;55.45;;;;;;;11.23;89.64;98097.97;5022061;28;20137;-75
2023/05/12 01:33:53;;;;;;;59.38;56.08;;;;;;;11.01;90.28;98090.72;5029288;28;20080;-76
2023/05/12 01:36:19;;;;;;;54.60;51.58;;;;;;;11.09;89.20;98076.78;5013481;28;20033;-75
2023/05/12 01:38:44;;;;;;;60.58;57.28;;;;;;;11.02;90.30;98092.31;5049096;28;20048;-75
2023/05/12 01:41:10;;;;;;;61.03;57.83;;;;;;;11.13;90.18;98089.78;5016900;28;20029;-75
2023/05/12 01:43:35;;;;;;;62.13;58.63;;;;;;;11.33;90.54;98095.41;5049557;28;20503;-75
2023/05/12 01:46:01;;;;;;;62.63;58.92;;;;;;;11.17;90.51;98093.59;5016878;28;20029;-75
2023/05/12 01:48:27;;;;;;;61.10;57.80;;;;;;;11.15;90.50;98095.72;5017167;28;20040;-75
2023/05/12 01:50:58;;;;;;;62.47;58.97;;;;;;;11.26;90.96;98097.47;5049875;28;20437;-76
2023/05/12 01:53:24;;;;;;;59.65;56.25;;;;;;;11.29;89.60;98088.91;5013291;28;20065;-75
2023/05/12 01:55:49;;;;;;;59.92;56.63;;;;;;;11.44;89.42;98086.34;5042681;28;20071;-75
2023/05/12 01:58:16;;;;;;;58.22;54.72;;;;;;;11.23;90.36;98096.09;5049758;28;20402;-75
2023/05/12 02:00:41;;;;;;;59.13;55.90;;;;;;;11.34;90.25;98095.13;5052855;28;20024;-75
2023/05/12 02:03:12;;;;;;;60.60;57.17;;;;;;;11.03;90.92;98099.38;5030832;28;20037;-75
2023/05/12 02:05:37;;;;;;;58.88;55.38;;;;;;;11.20;89.54;98102.00;5033559;28;20449;-74
2023/05/12 02:08:03;;;;;;;59.90;56.33;;;;;;;11.05;90.62;98099.91;5030422;28;20514;-75
2023/05/12 02:10:29;;;;;;;57.22;54.17;;;;;;;11.24;89.40;98099.59;5047213;28;20548;-75
2023/05/12 02:12:54;;;;;;;59.60;56.60;;;;;;;11.23;88.96;98097.97;5020302;28;20029;-75
2023/05/12 02:15:20;;;;;;;58.60;55.50;;;;;;;10.94;90.77;98095.47;5053159;28;20044;-75
2023/05/12 02:17:46;;;;;;;63.58;59.97;;;;;;;10.91;90.40;98095.97;5029452;28;20021;-74
2023/05/12 02:20:13;;;;;;;60.72;57.30;;;;;;;10.99;90.44;98097.41;5016967;28;20037;-75
2023/05/12 02:22:39;;;;;;;62.75;59.20;;;;;;;10.94;90.79;98102.72;5033221;28;20544;-74
2023/05/12 02:25:05;;;;;;;63.97;60.45;;;;;;;10.96;90.87;98100.59;5027619;28;20033;-74
2023/05/12 02:27:31;;;;;;;67.57;63.88;;;;;;;10.84;91.40;98100.72;5033268;28;20474;-72
2023/05/12 02:29:57;;;;;;;65.75;61.90;;;;;;;10.95;90.43;98091.69;5027467;28;20128;-72
2023/05/12 02:32:26;;;;;;;64.80;61.05;;;;;;;11.00;90.82;98094.47;5020698;28;20021;-73
2023/05/12 02:34:52;;;;;;;66.72;63.03;;;;;;;10.85;91.02;98099.63;5032607;28;20033;-73
2023/05/12 02:37:17;;;;;;;65.53;62.00;;;;;;;10.65;92.01;98085.88;5020839;28;20475;-76
2023/05/12 02:39:43;;;;;;;61.78;58.45;;;;;;;10.68;91.85;98079.19;5031310;28;20033;-73
2023/05/12 02:42:08;;;;;;;62.10;58.50;;;;;;;11.03;90.12;98090.47;5025755;28;20056;-73
2023/05/12 02:44:34;;;;;;;63.25;59.63;;;;;;;10.89;90.34;98087.31;5032598;28;20037;-74
2023/05/12 02:47:01;;;;;;;62.40;59.05;;;;;;;10.97;90.07;98084.16;5021243;28;20059;-74
2023/05/12 02:49:27;;;;;;;65.15;61.55;;;;;;;10.92;90.42;98086.00;5016522;28;20075;-74
2023/05/12 02:51:54;;;;;;;63.80;60.47;;;;;;;10.89;90.89;98081.94;5021720;28;20040;-73
2023/05/12 02:54:19;;;;;;;63.17;59.58;;;;;;;11.01;90.16;98077.25;5019534;28;20040;-73
2023/05/12 02:56:44;;;;;;;60.20;57.05;;;;;;;11.05;90.04;98091.84;5032894;28;20399;-74
2023/05/12 02:59:10;;;;;;;61.72;58.53;;;;;;;11.13;89.53;98079.00;5029873;28;20037;-74
2023/05/12 03:01:36;;;;;;;61.03;57.70;;;;;;;11.16;89.58;98086.56;5033141;28;20123;-74
2023/05/12 03:04:01;;;;;;;62.33;58.88;;;;;;;11.08;89.80;98080.53;5012973;28;20558;-74
2023/05/12 03:06:27;;;;;;;61.75;58.33;;;;;;;10.97;89.82;98081.47;5023876;28;20020;-74
2023/05/12 03:08:54;;;;;;;62.90;59.50;;;;;;;11.05;89.83;98081.06;5033448;28;20128;-74
2023/05/12 03:11:22;;;;;;;61.80;58.10;;;;;;;10.98;89.91;98085.81;5028962;28;20021;-74
2023/05/12 03:13:48;;;;;;;59.33;56.13;;;;;;;11.14;89.65;98070.66;5045539;28;20040;-74
2023/05/12 03:16:15;;;;;;;58.45;55.35;;;;;;;11.16;89.45;98081.16;5037246;28;20392;-75
2023/05/12 03:18:41;;;;;;;58.15;54.90;;;;;;;11.10;89.27;98072.22;5031086;28;20090;-73
2023/05/12 03:21:06;;;;;;;60.22;56.90;;;;;;;11.10;89.81;98081.13;5052605;28;20020;-73
2023/05/12 03:23:32;;;;;;;57.05;54.05;;;;;;;11.13;88.72;98072.53;5050992;28;20445;-73
2023/05/12 03:25:57;;;;;;;57.55;54.65;;;;;;;11.16;88.21;98070.38;5030850;28;20402;-72
2023/05/12 03:28:23;;;;;;;58.80;55.50;;;;;;;11.08;89.16;98077.06;5038432;28;20025;-74
2023/05/12 03:30:49;;;;;;;56.38;53.33;;;;;;;11.07;88.60;98073.53;5021673;28;20087;-73
2023/05/12 03:33:15;;;;;;;55.08;52.08;;;;;;;11.15;88.33;98069.59;5031616;28;20037;-73
2023/05/12 03:35:40;;;;;;;55.33;52.13;;;;;;;11.22;88.35;98074.78;5032096;28;20025;-72
2023/05/12 03:38:06;;;;;;;54.40;51.40;;;;;;;11.13;88.64;98081.69;5025984;28;20041;-74
2023/05/12 03:40:31;;;;;;;56.63;53.72;;;;;;;11.21;88.27;98073.16;5019504;28;20021;-72
2023/05/12 03:42:56;;;;;;;57.03;53.97;;;;;;;11.13;88.34;98076.28;5009156;28;20510;-72
2023/05/12 03:45:22;;;;;;;56.40;53.20;;;;;;;11.16;88.40;98081.16;5031993;28;20025;-71
2023/05/12 03:47:47;;;;;;;59.55;56.28;;;;;;;10.98;89.20;98075.03;5025690;28;20104;-73
2023/05/12 03:50:13;;;;;;;56.80;53.90;;;;;;;11.06;89.15;98077.28;5028922;28;20021;-74
2023/05/12 03:52:40;;;;;;;55.47;52.28;;;;;;;11.06;88.31;98077.28;5042496;28;20029;-74
2023/05/12 03:55:06;;;;;;;57.80;54.47;;;;;;;10.97;89.54;98073.41;5019110;28;20036;-75
2023/05/12 03:57:33;;;;;;;56.47;53.38;;;;;;;11.18;87.91;98070.97;5032295;28;20037;-74
2023/05/12 03:59:59;;;;;;;52.70;49.85;;;;;;;11.15;88.17;98074.16;5032476;28;20025;-74
2023/05/12 04:02:25;;;;;;;52.72;49.80;;;;;;;11.15;87.81;98066.91;5045384;28;20040;-73
2023/05/12 04:04:50;;;;;;;53.65;50.75;;;;;;;11.19;87.79;98056.41;5039211;28;20060;-73
2023/05/12 04:07:16;;;;;;;54.25;51.38;;;;;;;11.13;87.74;98061.75;5031620;28;20037;-73
2023/05/12 04:09:42;;;;;;;53.90;50.90;;;;;;;11.19;87.33;98064.50;5047828;28;20437;-74
2023/05/12 04:12:09;;;;;;;51.42;48.55;;;;;;;11.24;87.06;98068.09;5017814;28;20044;-74
2023/05/12 04:14:34;;;;;;;50.97;48.17;;;;;;;11.23;87.16;98071.00;5021748;28;20443;-75
2023/05/12 04:17:00;;;;;;;50.65;47.95;;;;;;;11.35;86.31;98069.00;5037828;28;20490;-75
2023/05/12 04:19:26;;;;;;;51.83;48.97;;;;;;;11.22;86.43;98066.69;5034021;28;20036;-75
2023/05/12 04:21:51;;;;;;;48.80;46.10;;;;;;;11.27;86.93;98072.16;5037019;28;20103;-75
2023/05/12 04:24:16;;;;;;;47.60;45.10;;;;;;;11.32;85.22;98069.53;5030242;28;20056;-75
2023/05/12 04:26:42;;;;;;;46.65;44.15;;;;;;;11.38;85.65;98079.28;5031315;28;20033;-74
2023/05/12 04:29:07;;;;;;;42.85;40.45;;;;;;;11.50;84.18;98082.66;5030507;28;20183;-73
2023/05/12 04:31:33;;;;;;;43.30;41.00;;;;;;;11.58;84.18;98080.31;5044818;28;20025;-74
2023/05/12 04:34:00;;;;;;;44.10;41.70;;;;;;;11.39;84.63;98080.94;5017825;28;20022;-75
2023/05/12 04:36:25;;;;;;;45.70;43.13;;;;;;;11.39;86.44;98086.31;5033799;28;20063;-74
2023/05/12 04:38:52;;;;;;;49.05;46.05;;;;;;;11.44;86.75;98092.56;5032145;28;20052;-75
2023/05/12 04:41:18;;;;;;;54.47;51.25;;;;;;;11.08;89.10;98091.31;5025518;28;20044;-75
2023/05/12 04:43:43;;;;;;;52.72;49.83;;;;;;;11.31;87.75;98089.44;5017947;28;20026;-74
2023/05/12 04:46:08;;;;;;;56.85;53.63;;;;;;;11.43;88.06;98084.75;5044533;28;20029;-74
2023/05/12 04:48:34;;;;;;;53.30;50.58;;;;;;;11.30;86.41;98090.50;5050514;28;20054;-74
2023/05/12 04:51:00;;;;;;;55.72;52.55;;;;;;;11.41;86.49;98100.38;5020851;28;20030;-73
2023/05/12 04:53:26;;;;;;;55.92;52.83;;;;;;;11.37;87.52;98096.53;5050270;28;20364;-75
2023/05/12 04:55:52;;;;;;;55.42;52.42;;;;;;;11.28;87.04;98100.72;5020197;28;20030;-73
2023/05/12 04:58:18;;;;;;;60.40;56.95;;;;;;;11.38;88.17;98100.88;5030598;28;20033;-73
2023/05/12 05:00:44;;;;;;;57.88;54.67;;;;;;;11.40;87.88;98098.72;5043756;28;20033;-73
2023/05/12 05:03:09;;;;;;;59.25;56.13;;;;;;;11.52;88.37;98102.94;5017666;28;20021;-74
2023/05/12 05:05:35;;;;;;;62.30;58.70;;;;;;;11.46;88.81;98105.81;5036652;28;20025;-74
2023/05/12 05:08:00;;;;;;;60.53;56.80;;;;;;;11.28;88.91;98106.94;5018019;28;20463;-73
2023/05/12 05:10:26;;;;;;;63.28;59.83;;;;;;;11.34;90.55;98115.91;5033750;28;20056;-73
2023/05/12 05:12:52;;;;;;;62.80;59.40;;;;;;;11.39;89.44;98108.69;5027839;28;20487;-73
2023/05/12 05:15:18;;;;;;;63.70;60.20;;;;;;;11.53;88.38;98109.94;5043439;28;20098;-73
2023/05/12 05:17:47;;;;;;;59.53;56.13;;;;;;;11.57;88.06;98110.25;5030333;28;20032;-73
2023/05/12 05:20:13;;;;;;;58.95;55.72;;;;;;;11.72;87.69;98119.34;5030307;28;20025;-73
2023/05/12 05:22:39;;;;;;;60.28;56.97;;;;;;;11.74;88.44;98119.09;5030184;28;20063;-73
2023/05/12 05:25:06;;;;;;;60.60;57.33;;;;;;;11.86;87.88;98122.47;5007830;28;20083;-73
2023/05/12 05:27:32;;;;;;;59.22;55.75;;;;;;;11.64;86.61;98127.06;5017927;28;20052;-73
2023/05/12 05:29:57;;;;;;;58.33;55.22;;;;;;;11.74;87.19;98137.97;5043845;28;20036;-73
2023/05/12 05:32:23;;;;;;;58.13;55.05;;;;;;;11.78;87.25;98133.72;5030586;28;20029;-74
2023/05/12 05:34:48;;;;;;;54.45;51.65;;;;;;;11.83;86.22;98138.38;5016765;28;20068;-73
2023/05/12 05:37:14;;;;;;;54.35;51.47;;;;;;;11.89;86.86;98134.63;5004958;28;20040;-73
2023/05/12 05:39:39;;;;;;;55.42;52.38;;;;;;;12.02;86.02;98135.03;5047602;28;20036;-74
2023/05/12 05:42:06;;;;;;;56.80;53.60;;;;;;;11.90;86.97;98126.31;5017888;28;20110;-74
2023/05/12 05:44:32;;;;;;;56.65;53.38;;;;;;;11.94;87.08;98122.03;5017540;28;20037;-73
2023/05/12 05:46:58;;;;;;;55.40;52.30;;;;;;;11.69;87.49;98135.25;5047461;28;20402;-74
2023/05/12 05:49:24;;;;;;;58.13;55.03;;;;;;;11.94;86.89;98127.41;5047443;28;20033;-74
2023/05/12 05:51:52;;;;;;;57.83;54.70;;;;;;;12.22;86.87;98140.66;5024908;28;20025;-74
2023/05/12 05:54:17;;;;;;;56.17;52.92;;;;;;;12.28;86.52;98139.63;5041703;28;20035;-74
2023/05/12 05:56:44;;;;;;;54.30;51.42;;;;;;;12.22;86.06;98140.66;5030222;28;20048;-75
2023/05/12 05:59:09;;;;;;;54.33;51.40;;;;;;;12.28;86.09;98139.63;5047392;28;20138;-75
2023/05/12 06:01:35;;;;;;;53.90;51.03;;;;;;;12.55;86.09;98138.75;5024030;28;20035;-74
2023/05/12 06:04:00;;;;;;;53.25;50.22;;;;;;;12.57;86.27;98142.03;5040397;28;20038;-74
2023/05/12 06:06:27;;;;;;;54.28;51.10;;;;;;;12.44;86.13;98144.06;5033729;28;20017;-74
2023/05/12 06:08:54;;;;;;;47.70;45.05;;;;;;;12.50;84.96;98147.66;5027353;28;20380;-74
2023/05/12 06:11:20;;;;;;;47.17;44.65;;;;;;;12.40;83.63;98144.84;5037006;28;20436;-74
2023/05/12 06:13:45;;;;;;;47.90;45.20;;;;;;;12.41;84.06;98139.22;5036310;28;21782;-74
2023/05/12 06:16:11;;;;;;;51.53;48.65;;;;;;;12.48;85.26;98139.78;5040612;28;20524;-75
2023/05/12 06:18:36;;;;;;;55.13;52.30;;;;;;;12.40;86.46;98142.97;5040141;28;20041;-74
2023/05/12 06:21:03;;;;;;;59.13;56.08;;;;;;;12.19;87.17;98140.34;5029494;28;20026;-74
2023/05/12 06:23:28;;;;;;;61.28;57.97;;;;;;;12.28;87.87;98139.63;5033455;28;20495;-73
2023/05/12 06:25:54;;;;;;;61.22;58.10;;;;;;;12.34;86.35;98154.00;5046043;28;20026;-74
2023/05/12 06:28:19;;;;;;;61.90;58.70;;;;;;;12.41;86.96;98155.41;5030157;28;20128;-75
2023/05/12 06:30:45;;;;;;;58.08;54.97;;;;;;;12.54;85.95;98150.63;5039948;28;20021;-75
2023/05/12 06:33:10;;;;;;;55.53;52.45;;;;;;;12.42;85.54;98150.81;5040813;28;20038;-75
2023/05/12 06:35:35;;;;;;;57.28;54.25;;;;;;;12.58;84.96;98144.44;5046093;28;20031;-74
2023/05/12 06:38:04;;;;;;;53.83;50.83;;;;;;;12.40;85.58;98136.75;5048211;28;20029;-75
2023/05/12 06:40:29;;;;;;;55.22;52.20;;;;;;;12.49;85.64;98146.81;5046131;28;20021;-74
2023/05/12 06:42:54;;;;;;;56.75;53.45;;;;;;;12.72;85.48;98150.25;5046151;28;20136;-74
2023/05/12 06:45:22;;;;;;;53.70;51.00;;;;;;;12.82;84.84;98148.44;5040165;28;20025;-74
2023/05/12 06:47:48;;;;;;;53.65;50.65;;;;;;;13.01;85.07;98140.72;5033319;28;20045;-74
2023/05/12 06:50:14;;;;;;;50.33;47.45;;;;;;;13.09;83.03;98145.66;5026048;28;20028;-75
2023/05/12 06:52:39;;;;;;;45.63;43.10;;;;;;;13.08;82.91;98149.44;5039190;28;20471;-74
2023/05/12 06:55:05;;;;;;;49.65;46.95;;;;;;;13.15;83.54;98152.72;5036539;28;20021;-74
2023/05/12 06:57:31;;;;;;;48.85;46.25;;;;;;;13.29;83.34;98162.00;5031789;28;20033;-75
2023/05/12 06:59:56;;;;;;;42.55;40.25;;;;;;;13.06;82.69;98157.00;5039475;28;20033;-74
2023/05/12 07:02:22;;;;;;;41.15;38.97;;;;;;;13.34;82.21;98153.91;5039306;28;20064;-74
2023/05/12 07:04:47;;;;;;;44.13;41.75;;;;;;;13.22;82.37;98155.19;5052163;28;20029;-75
2023/05/12 07:07:12;;;;;;;36.55;34.65;;;;;;;13.31;80.88;98159.84;5022558;28;20037;-76
2023/05/12 07:09:39;;;;;;;36.45;34.33;;;;;;;13.34;81.39;98167.44;5015980;28;20163;-76
2023/05/12 07:12:05;;;;;;;35.67;33.80;;;;;;;13.30;81.24;98160.94;5045972;28;20049;-75
2023/05/12 07:14:30;;;;;;;36.83;34.95;;;;;;;13.21;80.53;98151.66;5046718;28;20030;-76
2023/05/12 07:16:56;;;;;;;36.90;34.75;;;;;;;13.36;80.29;98162.59;5042591;28;20398;-76
2023/05/12 07:19:21;;;;;;;28.40;26.80;;;;;;;13.56;78.33;98157.25;5032540;28;20029;-75
2023/05/12 07:21:47;;;;;;;29.05;27.40;;;;;;;13.78;79.47;98155.19;5025196;28;20168;-76
2023/05/12 07:24:13;;;;;;;24.45;23.05;;;;;;;13.77;77.54;98148.13;5031420;28;20167;-76
2023/05/12 07:26:38;;;;;;;22.13;20.83;;;;;;;13.53;77.92;98149.69;5032247;28;20487;-76
2023/05/12 07:29:05;;;;;;;29.05;27.45;;;;;;;13.83;79.47;98144.38;5031912;28;20021;-75
2023/05/12 07:31:32;;;;;;;28.70;27.00;;;;;;;14.01;78.64;98150.38;5033393;28;20038;-76
2023/05/12 07:33:57;;;;;;;28.98;26.95;;;;;;;14.20;77.54;98151.50;5021770;28;20032;-76
2023/05/12 07:36:23;;;;;;;23.77;22.38;;;;;;;14.04;77.78;98149.84;5022213;28;20037;-76
2023/05/12 07:38:48;;;;;;;21.65;20.38;;;;;;;14.45;77.01;98154.25;5033724;28;20098;-76
2023/05/12 07:41:14;;;;;;;25.80;24.20;;;;;;;14.46;77.24;98150.47;5051165;28;20045;-74
2023/05/12 07:43:39;;;;;;;26.77;25.27;;;;;;;14.10;77.96;98157.69;5045765;28;20021;-76
2023/05/12 07:46:05;;;;;;;30.83;29.23;;;;;;;14.28;78.97;98156.38;5024350;28;20037;-75
2023/05/12 07:48:30;;;;;;;29.90;28.30;;;;;;;14.24;78.60;98149.88;5034952;28;20063;-75
2023/05/12 07:50:56;;;;;;;22.35;21.05;;;;;;;14.20;76.31;98151.50;5051774;28;20041;-76
2023/05/12 07:53:21;;;;;;;22.27;20.67;;;;;;;14.52;76.06;98150.19;5051524;28;20021;-76
2023/05/12 07:55:46;;;;;;;25.38;23.98;;;;;;;14.53;77.50;98151.03;5052609;28;20120;-72
2023/05/12 07:58:12;;;;;;;19.58;18.48;;;;;;;15.07;74.12;98162.91;5015956;28;20048;-76
2023/05/12 08:00:37;;;;;;;15.23;14.25;;;;;;;14.73;74.60;98161.84;5032674;28;20038;-76
2023/05/12 08:03:04;;;;;;;21.02;19.92;;;;;;;14.76;75.66;98158.59;5030015;28;20380;-76
2023/05/12 08:05:29;;;;;;;15.48;14.35;;;;;;;14.99;74.39;98165.34;5031789;28;20040;-76
2023/05/12 08:07:55;;;;;;;17.23;16.15;;;;;;;15.13;74.98;98167.25;5029926;28;20029;-76
2023/05/12 08:10:20;;;;;;;12.38;11.48;;;;;;;14.88;72.95;98170.00;5044444;28;20041;-77
2023/05/12 08:12:46;;;;;;;15.93;14.82;;;;;;;14.75;75.46;98165.09;5053690;28;20116;-76
2023/05/12 08:15:11;;;;;;;13.30;12.10;;;;;;;15.20;72.74;98173.19;5037310;28;20033;-76
2023/05/12 08:17:37;;;;;;;15.48;13.98;;;;;;;15.30;74.53;98166.13;5038992;28;20080;-75
2023/05/12 08:20:05;;;;;;;10.90;10.20;;;;;;;15.60;71.05;98166.88;5031169;28;20037;-75
2023/05/12 08:22:32;;;;;;;10.23;9.35;;;;;;;15.49;71.49;98167.19;5030822;28;20048;-76
2023/05/12 08:24:57;;;;;;;8.43;7.72;;;;;;;15.69;69.97;98169.81;5044029;28;20091;-75
2023/05/12 08:27:23;;;;;;;9.35;7.95;;;;;;;15.33;70.85;98165.56;5032799;28;20475;-75
2023/05/12 08:29:48;;;;;;;8.55;7.85;;;;;;;15.26;70.79;98156.91;5030885;28;20051;-75
2023/05/12 08:32:13;;;;;;;6.93;6.32;;;;;;;15.17;68.59;98168.31;5036932;28;20091;-75
2023/05/12 08:34:39;;;;;;;9.43;7.47;;;;;;;15.27;71.86;98180.22;5037843;28;20120;-74
2023/05/12 08:37:05;;;;;;;9.07;8.27;;;;;;;15.22;71.51;98175.63;5014301;28;20112;-74
2023/05/12 08:39:30;;;;;;;10.00;9.10;;;;;;;15.51;70.86;98170.44;4997875;28;20033;-74
2023/05/12 08:42:16;;;;;;;9.32;8.57;;;;;;;15.49;69.81;98178.03;5031846;28;20459;-74
2023/05/12 08:44:41;;;;;;;8.57;7.78;;;;;;;15.74;70.21;98177.94;5030429;28;20037;-74
2023/05/12 08:47:07;;;;;;;10.02;9.23;;;;;;;15.94;70.46;98180.56;5030664;28;20040;-74
2023/05/12 08:49:35;;;;;;;6.82;6.22;;;;;;;16.05;67.32;98184.88;5030533;28;20115;-74
2023/05/12 08:52:01;;;;;;;8.15;7.55;;;;;;;15.98;70.91;98184.34;5019298;28;20025;-73
2023/05/12 08:54:27;;;;;;;6.47;5.82;;;;;;;16.07;68.22;98181.84;5045467;28;20032;-74
2023/05/12 08:56:52;;;;;;;6.82;6.18;;;;;;;16.06;68.53;98188.38;5050532;28;20438;-74
2023/05/12 08:59:18;;;;;;;6.90;6.40;;;;;;;15.86;69.71;98192.00;5020849;28;20033;-72
2023/05/12 09:01:46;;;;;;;5.78;5.28;;;;;;;16.45;67.76;98194.69;5051779;28;20028;-73
2023/05/12 09:04:12;;;;;;;5.00;4.50;;;;;;;16.13;67.00;98181.56;5050276;28;20442;-74
2023/05/12 09:06:37;;;;;;;5.47;3.60;;;;;;;16.18;65.44;98178.81;5033945;28;20020;-75
2023/05/12 09:09:03;;;;;;;3.70;3.40;;;;;;;16.43;64.01;98189.50;5034879;28;20029;-74
2023/05/12 09:11:28;;;;;;;4.35;3.95;;;;;;;16.55;65.46;98172.88;5022571;28;20029;-74
2023/05/12 09:14:03;;;;;;;6.18;5.25;;;;;;;17.08;67.54;98176.53;5034890;28;20044;-74
2023/05/12 09:16:32;;;;;;;6.15;3.55;;;;;;;16.68;64.68;98176.88;5035608;28;20123;-74
2023/05/12 09:18:59;;;;;;;3.85;3.33;;;;;;;17.71;61.58;98174.53;5033463;28;20065;-74
2023/05/12 09:21:25;;;;;;;4.60;3.05;;;;;;;16.91;62.12;98168.78;5031644;28;20394;-74
2023/05/12 09:23:58;;;;;;;4.57;3.58;;;;;;;16.99;65.83;98183.69;5033606;28;20029;-74
2023/05/12 09:26:26;;;;;;;4.10;3.47;;;;;;;16.70;63.14;98185.56;5040441;28;20117;-74
2023/05/12 09:28:54;;;;;;;3.72;3.28;;;;;;;16.92;63.20;98184.00;5027204;28;20071;-74
2023/05/12 09:31:21;;;;;;;7.00;3.30;;;;;;;17.22;60.76;98185.66;5030328;28;20036;-73
2023/05/12 09:33:48;;;;;;;3.88;3.15;;;;;;;16.99;61.22;98186.41;5034888;28;20032;-73
2023/05/12 09:36:18;;;;;;;5.05;3.50;;;;;;;16.99;61.83;98189.13;5038420;28;20084;-73
2023/05/12 09:38:43;;;;;;;3.50;3.20;;;;;;;17.00;61.05;98185.31;5036889;28;20482;-73
2023/05/12 09:41:08;;;;;;;4.78;3.10;;;;;;;16.51;62.35;98186.25;5038130;28;20029;-74
2023/05/12 09:43:34;;;;;;;3.35;3.05;;;;;;;16.78;61.67;98193.13;5026404;28;20041;-73
2023/05/12 09:46:06;;;;;;;4.40;3.03;;;;;;;16.99;60.58;98179.03;5030182;28;20084;-73
2023/05/12 09:48:32;;;;;;;3.20;3.00;;;;;;;17.23;60.85;98195.41;5050831;28;20052;-73
2023/05/12 09:50:57;;;;;;;3.90;2.90;;;;;;;17.60;58.83;98176.53;5037243;28;20377;-74
2023/05/12 09:53:23;;;;;;;4.63;2.78;;;;;;;17.67;59.72;98184.34;5050671;28;20052;-74
2023/05/12 09:55:48;;;;;;;3.53;2.63;;;;;;;17.46;57.63;98178.31;5049824;28;20048;-74
2023/05/12 09:58:15;;;;;;;4.05;2.75;;;;;;;18.01;56.16;98189.69;5049930;28;20037;-74
2023/05/12 10:00:41;;;;;;;2.60;2.33;;;;;;;17.53;59.33;98184.25;5020646;28;20075;-74
2023/05/12 10:03:14;;;;;;;4.15;2.30;;;;;;;17.81;57.22;98183.38;5033039;28;20032;-74
2023/05/12 10:05:54;;;;;;;2.67;2.28;;;;;;;18.03;57.76;98179.28;5036546;28;20392;-74
2023/05/12 10:08:24;;;;;;;4.72;2.33;;;;;;;17.99;58.01;98186.44;5018929;28;20102;-74
2023/05/12 10:10:51;;;;;;;2.35;2.15;;;;;;;17.38;57.87;98187.13;5043571;28;20079;-75
2023/05/12 10:13:16;;;;;;;2.72;2.00;;;;;;;17.53;56.52;98178.81;5029687;28;20099;-74
2023/05/12 10:15:42;;;;;;;5.90;2.17;;;;;;;17.21;57.24;98181.28;5029261;28;20018;-74
2023/05/12 10:18:07;;;;;;;2.22;2.03;;;;;;;17.39;57.03;98179.72;5031182;28;20095;-74
2023/05/12 10:20:34;;;;;;;4.22;2.30;;;;;;;17.85;56.28;98178.16;5032253;28;20033;-74
2023/05/12 10:23:00;;;;;;;2.60;2.28;;;;;;;17.37;56.81;98179.22;5033393;28;20098;-74
2023/05/12 10:25:26;;;;;;;2.60;2.10;;;;;;;17.90;56.42;98168.00;5046867;28;20025;-74
2023/05/12 10:27:52;;;;;;;3.60;2.13;;;;;;;17.37;57.25;98169.16;5026686;28;20052;-74
2023/05/12 10:30:18;;;;;;;3.20;2.05;;;;;;;17.31;58.67;98181.19;5020650;28;20102;-74
2023/05/12 10:32:43;;;;;;;2.35;2.15;;;;;;;17.56;58.87;98178.22;5022962;28;20131;-74
2023/05/12 10:35:10;;;;;;;4.53;2.47;;;;;;;17.41;59.87;98186.50;5045761;28;20033;-74
2023/05/12 10:37:36;;;;;;;3.33;2.92;;;;;;;16.98;61.03;98187.50;5035615;28;20033;-74
2023/05/12 10:40:03;;;;;;;5.25;2.70;;;;;;;16.98;60.79;98182.06;5032116;28;20028;-74
2023/05/12 10:42:36;;;;;;;5.43;3.25;;;;;;;17.34;59.05;98185.25;5044725;28;20093;-74
2023/05/12 10:45:03;;;;;;;4.53;3.03;;;;;;;17.56;58.29;98182.84;5018005;28;20032;-74
2023/05/12 10:47:36;;;;;;;3.90;3.20;;;;;;;17.55;58.69;98181.25;5032920;28;20037;-74
2023/05/12 10:50:01;;;;;;;3.72;3.00;;;;;;;17.62;56.94;98182.50;5029614;28;20117;-74
2023/05/12 10:52:27;;;;;;;3.53;2.70;;;;;;;18.07;55.97;98183.03;5044632;28;20032;-74
2023/05/12 10:54:59;;;;;;;4.70;2.70;;;;;;;17.75;54.88;98190.00;5049064;28;20041;-74
2023/05/12 10:57:24;;;;;;;3.63;2.60;;;;;;;17.84;55.00;98185.53;5025275;28;20128;-74
2023/05/12 10:59:51;;;;;;;3.10;2.90;;;;;;;18.00;55.44;98185.31;5031800;28;20116;-74
2023/05/12 11:02:18;;;;;;;4.45;2.67;;;;;;;18.24;55.26;98183.38;5046064;28;20037;-74
2023/05/12 11:04:58;;;;;;;5.97;2.78;;;;;;;17.94;55.39;98177.22;5039026;28;20021;-74
2023/05/12 11:07:31;;;;;;;4.90;3.00;;;;;;;18.32;54.54;98185.44;5006131;28;20376;-74
2023/05/12 11:10:01;;;;;;;4.05;2.63;;;;;;;17.99;54.64;98186.44;5032792;28;20069;-74
2023/05/12 11:12:30;;;;;;;3.28;2.88;;;;;;;17.97;53.81;98186.72;5049206;28;20043;-74
2023/05/12 11:14:58;;;;;;;2.95;2.50;;;;;;;18.04;53.17;98168.09;5043117;28;20107;-74
2023/05/12 11:17:24;;;;;;;3.83;2.85;;;;;;;18.07;53.37;98183.03;5042248;28;20029;-74